Latest Weather Observations for Mudgee

IDN60801

Issued at 3:32 am EST Thursday 29 June 2017 (issued every 30 minutes, with the page automatically refreshed every 10 minutes)

About weather observations | Map of weather stations | Latest weather observations for NSW | Other Formats
Station Details ID: 062101 Name: MUDGEE AIRPORT AWS Lat: -32.56 Lon: 149.61 Height: 471.0 m
Data from the previous 72 hours. | See also: Recent months at Mudgee
Date/Time
EST
Temp
°C
App
Temp
°C
Dew
Point
°C
Rel
Hum
%
Delta-T
°C
Wind Press
QNH
hPa
Press
MSL
hPa
Rain since
9am
mm
Dir  Spd
km/h
Gust
km/h
Spd
kts
Gust
kts
29/03:30am 8.4 6.9 8.3 99 0.0 ENE 6 9 3 5 1021.1 1021.6 6.4
29/03:00am 8.1 7.6 8.0 99 0.0 CALM 0 0 0 0 1022.1 1022.6 5.8
29/02:30am 8.0 6.8 7.9 99 0.0 SW 4 6 2 3 1021.5 1022.0 5.8
29/02:00am 8.3 7.9 8.2 99 0.0 CALM 0 0 0 0 1021.8 1022.2 5.8
29/01:55am 8.3 7.9 8.2 99 0.0 CALM 0 0 0 0 1021.9 1022.3 5.8
29/01:39am 8.0 7.5 7.9 99 0.0 CALM 0 0 0 0 1022.1 1022.6 5.8
29/01:30am 8.6 8.3 8.5 99 0.0 CALM 0 0 0 0 1021.9 1022.3 5.8
29/01:00am 8.8 7.2 8.7 99 0.0 NE 7 7 4 4 1021.9 1022.3 5.8
29/12:30am 8.8 8.1 8.7 99 0.0 W 2 7 1 4 1022.2 1022.7 5.8
29/12:04am 8.3 6.6 8.2 99 0.0 NW 7 11 4 6 1022.6 1023.1 5.8
29/12:00am 8.6 6.9 8.5 99 0.0 NNW 7 9 4 5 1022.4 1022.9 5.8
 
Date/Time
EST
Temp
°C
App
Temp
°C
Dew
Point
°C
Rel
Hum
%
Delta-T
°C
Wind Press
QNH
hPa
Press
MSL
hPa
Rain since
9am
mm
Dir  Spd
km/h
Gust
km/h
Spd
kts
Gust
kts
28/11:53pm 8.7 7.1 8.6 99 0.0 NE 7 11 4 6 1022.0 1022.5 5.8
28/11:50pm 8.9 6.9 8.8 99 0.1 ENE 9 11 5 6 1021.4 1021.9 5.8
28/11:30pm 8.5 6.4 8.4 99 0.0 NE 9 11 5 6 1021.9 1022.3 5.8
28/11:18pm 8.7 6.3 8.6 99 0.0 NE 11 13 6 7 1022.0 1022.5 5.8
28/11:03pm 8.8 7.2 8.7 99 0.0 NE 7 9 4 5 1022.3 1022.8 5.8
28/11:00pm 8.8 7.2 8.7 99 0.0 NE 7 9 4 5 1022.4 1022.9 5.8
28/10:30pm 8.6 6.9 8.5 99 0.0 N 7 9 4 5 1022.8 1023.3 5.8
28/10:08pm 8.8 8.5 8.7 99 0.0 CALM 0 0 0 0 1022.7 1023.2 5.8
28/10:01pm 9.1 8.9 9.0 99 0.1 CALM 0 0 0 0 1022.5 1023.0 5.8
28/10:00pm 9.1 8.9 9.0 99 0.1 CALM 0 0 0 0 1022.5 1023.0 5.8
28/09:30pm 9.1 8.5 9.0 99 0.1 ESE 2 7 1 4 1022.6 1023.1 5.6
28/09:19pm 9.1 8.5 9.0 99 0.1 SSE 2 6 1 3 1022.8 1023.3 5.6
28/09:15pm 9.1 8.1 9.0 99 0.1 S 4 7 2 4 1022.9 1023.4 5.6
28/09:00pm 9.2 8.6 9.1 99 0.1 SSE 2 7 1 4 1022.8 1023.3 5.6
28/08:30pm 9.5 8.3 9.4 99 0.1 NE 6 11 3 6 1023.0 1023.5 5.6
28/08:08pm 8.9 7.5 8.8 99 0.1 NNE 6 7 3 4 1022.9 1023.4 5.6
28/08:00pm 9.0 7.6 8.9 99 0.0 NW 6 6 3 3 1022.8 1023.3 5.6
28/07:30pm 9.3 7.4 9.2 99 0.1 NE 9 9 5 5 1022.3 1022.8 5.4
28/07:00pm 9.5 9.3 9.2 98 0.2 CALM 0 2 0 1 1022.7 1023.2 5.4
28/06:30pm 9.6 8.1 9.3 98 0.2 NNE 7 7 4 4 1022.7 1023.2 5.4
28/06:00pm 10.1 8.8 9.8 98 0.2 ENE 7 9 4 5 1022.1 1022.6 5.4
28/05:30pm 10.1 9.0 9.8 98 0.2 NE 6 9 3 5 1022.0 1022.5 5.4
28/05:00pm 10.2 8.9 9.9 98 0.2 N 7 9 4 5 1022.2 1022.7 5.4
28/04:30pm 10.5 8.9 10.2 98 0.2 N 9 11 5 6 1022.2 1022.7 5.4
28/04:00pm 10.8 10.2 10.5 98 0.2 WNW 4 7 2 4 1022.3 1022.8 5.4
28/03:30pm 11.0 11.2 10.7 98 0.2 CALM 0 0 0 0 1021.9 1022.3 5.4
28/03:00pm 10.9 11.1 10.6 98 0.2 CALM 0 0 0 0 1021.9 1022.3 5.4
28/02:30pm 10.2 10.2 9.9 98 0.2 CALM 0 0 0 0 1022.0 1022.5 5.4
28/02:00pm 9.9 9.8 9.6 98 0.2 CALM 0 0 0 0 1021.9 1022.3 5.4
28/01:30pm 9.6 9.1 9.3 98 0.2 N 2 7 1 4 1022.6 1023.1 4.8
28/01:00pm 9.4 7.9 9.1 98 0.2 NE 7 9 4 5 1022.8 1023.3 3.8
28/12:30pm 9.5 8.2 9.2 98 0.2 NNW 6 7 3 4 1023.5 1024.0 2.4
28/12:00pm 9.5 8.2 9.2 98 0.2 NNW 6 6 3 3 1023.6 1024.1 1.4
28/11:30am 9.1 7.1 8.8 98 0.2 NNE 9 9 5 5 1023.3 1023.8 1.2
28/11:00am 9.1 7.7 8.8 98 0.1 NNW 6 7 3 4 1024.3 1024.8 0.6
28/10:30am 9.6 8.4 8.2 91 0.7 NNW 4 7 2 4 1024.4 1024.9 0.4
28/10:00am 9.7 8.8 7.6 87 1.0 SSE 2 6 1 3 1024.3 1024.8 0.0
28/09:30am 9.5 8.6 7.9 90 0.8 SSE 2 7 1 4 1024.1 1024.6 0.0
28/09:00am 8.6 6.9 7.5 93 0.5 S 6 7 3 4 1024.1 1024.6 0.0
28/08:30am 8.4 7.8 7.2 92 0.6 CALM 0 0 0 0 1023.9 1024.4 0.0
28/08:00am 7.8 6.0 7.2 96 0.3 SE 6 7 3 4 1023.7 1024.3 0.0
28/07:30am 6.8 4.8 6.2 96 0.3 WSW 6 7 3 4 1023.7 1024.3 0.0
28/07:00am 7.2 5.3 6.8 97 0.2 E 6 9 3 5 1023.4 1023.9 0.0
28/06:30am 7.1 6.0 6.7 97 0.2 SSE 2 6 1 3 1023.5 1024.0 0.0
28/06:00am 6.8 5.2 6.4 97 0.2 N 4 6 2 3 1023.5 1024.0 0.0
28/05:30am 6.8 4.6 6.4 97 0.2 NNE 7 11 4 6 1023.4 1023.9 0.0
28/05:00am 7.2 6.3 6.1 93 0.5 CALM 0 0 0 0 1023.3 1023.8 0.0
28/04:30am 7.0 6.1 6.1 94 0.4 CALM 0 6 0 3 1023.1 1023.6 0.0
28/04:00am 7.7 6.9 6.5 92 0.6 CALM 0 0 0 0 1023.2 1023.7 0.0
28/03:30am 7.1 6.2 6.0 93 0.5 CALM 0 0 0 0 1023.9 1024.4 0.0
28/03:00am 7.2 6.3 6.1 93 0.5 CALM 0 0 0 0 1023.4 1023.9 0.0
28/02:30am 7.3 6.4 6.1 92 0.6 CALM 0 0 0 0 1023.9 1024.4 0.0
28/02:00am 7.5 6.6 6.0 90 0.7 CALM 0 0 0 0 1023.6 1024.1 0.0
28/01:30am 7.4 6.5 6.0 91 0.7 CALM 0 0 0 0 1023.7 1024.3 0.0
28/01:00am 7.6 5.6 6.2 91 0.7 E 6 7 3 4 1023.3 1023.8 0.0
28/12:30am 7.2 5.2 6.1 93 0.5 NNE 6 9 3 5 1023.6 1024.1 0.0
28/12:00am 7.6 6.7 6.2 91 0.7 CALM 0 0 0 0 1024.1 1024.6 0.0
 
Date/Time
EST
Temp
°C
App
Temp
°C
Dew
Point
°C
Rel
Hum
%
Delta-T
°C
Wind Press
QNH
hPa
Press
MSL
hPa
Rain since
9am
mm
Dir  Spd
km/h
Gust
km/h
Spd
kts
Gust
kts
27/11:30pm 7.6 6.7 6.1 90 0.7 CALM 0 0 0 0 1024.3 1024.8 0.0
27/11:00pm 7.4 6.1 5.9 90 0.7 SSE 2 7 1 4 1024.3 1024.8 0.0
27/10:30pm 6.9 5.9 5.4 90 0.7 CALM 0 0 0 0 1024.4 1024.9 0.0
27/10:00pm 6.8 5.7 5.3 90 0.7 CALM 0 0 0 0 1024.6 1025.1 0.0
27/09:30pm 7.1 6.1 5.6 90 0.7 CALM 0 0 0 0 1024.4 1024.9 0.0
27/09:00pm 7.0 5.6 5.6 91 0.6 NNE 2 7 1 4 1024.2 1024.7 0.0
27/08:30pm 6.4 5.0 3.7 83 1.2 CALM 0 6 0 3 1024.1 1024.6 0.0
27/08:00pm 8.0 5.7 4.8 80 1.4 ENE 6 9 3 5 1024.0 1024.5 0.0
27/07:30pm 8.9 7.3 4.7 75 1.9 NE 2 9 1 5 1024.2 1024.7 0.0
27/07:00pm 10.1 9.0 4.9 70 2.4 CALM 0 0 0 0 1024.1 1024.6 0.0
27/06:30pm 10.5 9.4 4.9 68 2.6 CALM 0 0 0 0 1023.7 1024.3 0.0
27/06:00pm 10.8 8.5 4.7 66 2.8 NNE 6 7 3 4 1023.5 1024.0 0.0
27/05:30pm 11.5 10.3 4.5 62 3.3 CALM 0 4 0 2 1023.5 1024.0 0.0
27/05:00pm 12.3 9.4 4.8 60 3.5 E 9 13 5 7 1023.0 1023.5 0.0
27/04:30pm 12.6 9.3 4.8 59 3.7 ENE 11 17 6 9 1023.0 1023.5 0.0
27/04:00pm 13.0 9.0 4.7 57 3.9 NE 15 17 8 9 1022.9 1023.4 0.0
27/03:30pm 13.2 9.1 4.6 56 4.1 NE 15 20 8 11 1022.8 1023.3 0.0
27/03:00pm 13.8 9.4 4.7 54 4.3 NE 17 20 9 11 1023.1 1023.6 0.0
27/02:30pm 13.7 10.4 4.6 54 4.3 ENE 11 17 6 9 1023.1 1023.6 0.0
27/02:00pm 13.7 10.0 4.6 54 4.3 ENE 13 19 7 10 1023.4 1023.9 0.0
27/01:30pm 13.6 9.9 4.2 53 4.4 ENE 13 22 7 12 1023.6 1024.1 0.0
27/01:00pm 13.5 9.3 3.8 52 4.5 NE 15 20 8 11 1024.1 1024.6 0.0
27/12:30pm 13.6 9.5 4.2 53 4.4 ENE 15 20 8 11 1024.6 1025.1 0.0
27/12:00pm 12.8 10.4 5.2 60 3.6 E 7 9 4 5 1025.2 1025.7 0.0
27/11:30am 11.9 8.7 5.1 63 3.2 S 11 15 6 8 1025.5 1026.0 0.0
27/11:00am 11.3 7.6 4.5 63 3.1 S 13 15 7 8 1026.0 1026.6 0.0
27/10:30am 10.5 6.5 4.9 68 2.6 S 15 19 8 10 1026.0 1026.6 0.0
27/10:00am 8.8 4.3 4.4 74 2.0 SSW 17 20 9 11 1026.0 1026.6 0.0
27/09:30am 8.6 4.9 4.4 75 1.9 S 13 19 7 10 1026.5 1027.0 0.0
27/09:00am 5.8 3.4 5.4 97 0.2 SSE 7 13 4 7 1026.2 1026.7 0.0
27/08:58am 5.7 3.3 5.4 98 0.1 SSE 7 11 4 6 1026.2 1026.7 0.0
27/08:30am 0.6 -1.4 0.2 97 0.2 CALM 0 0 0 0 1026.2 1026.7 0.0
27/08:00am -0.2 -2.3 -0.6 97 0.1 CALM 0 0 0 0 1025.8 1026.4 0.0
27/07:30am -0.7 -2.8 -1.0 98 0.1 CALM 0 0 0 0 1025.7 1026.3 0.0
27/07:00am -2.5 -5.3 -2.9 97 0.0 NNE 2 7 1 4 1025.4 1025.9 0.0
27/06:30am -3.0 -5.4 -3.4 97 0.0 CALM 0 6 0 3 1025.2 1025.7 0.0
27/06:00am -2.3 -4.6 -2.7 97 0.0 CALM 0 0 0 0 1025.1 1025.6 0.0
27/05:30am -1.8 -4.1 -2.1 98 0.0 CALM 0 0 0 0 1025.2 1025.7 0.0
27/05:00am -2.3 -5.8 -2.7 97 0.0 NE 6 7 3 4 1025.0 1025.5 0.0
27/04:30am -3.2 -5.7 -3.6 97 0.0 CALM 0 6 0 3 1025.1 1025.6 0.0
27/04:00am -2.6 -5.4 -3.0 97 0.0 NNE 2 7 1 4 1025.1 1025.6 0.0
27/03:30am -2.1 -5.8 -2.5 97 0.0 ENE 7 11 4 6 1025.2 1025.7 0.0
27/03:00am -2.0 -5.1 -2.4 97 0.0 SE 4 11 2 6 1024.9 1025.4 0.0
27/02:30am -1.4 -3.6 -1.8 97 0.1 CALM 0 0 0 0 1025.2 1025.7 0.0
27/02:00am -1.7 -5.3 -2.1 97 0.1 NNE 7 11 4 6 1025.2 1025.7 0.0
27/01:30am -0.8 -3.0 -1.2 97 0.1 CALM 0 0 0 0 1025.2 1025.7 0.0
27/01:00am -2.0 -4.3 -2.4 97 0.0 CALM 0 0 0 0 1024.8 1025.3 0.0
27/12:30am -1.7 -6.4 -2.1 97 0.1 NE 13 19 7 10 1024.9 1025.4 0.0
27/12:00am -1.4 -3.7 -2.0 96 0.1 CALM 0 6 0 3 1024.7 1025.2 0.0
 
Date/Time
EST
Temp
°C
App
Temp
°C
Dew
Point
°C
Rel
Hum
%
Delta-T
°C
Wind Press
QNH
hPa
Press
MSL
hPa
Rain since
9am
mm
Dir  Spd
km/h
Gust
km/h
Spd
kts
Gust
kts
26/11:30pm -0.7 -3.2 -1.3 96 0.2 ESE 2 7 1 4 1025.2 1025.7 0.0
26/11:00pm -0.1 -2.2 -0.9 94 0.3 CALM 0 0 0 0 1025.6 1026.2 0.0
26/10:30pm -0.2 -3.5 -1.3 92 0.4 NNE 6 9 3 5 1025.6 1026.2 0.0
26/10:00pm 0.5 -4.0 -0.6 92 0.4 NE 13 15 7 8 1025.2 1025.7 0.0
26/09:30pm 1.1 -2.2 -1.0 86 0.8 NNE 6 7 3 4 1024.8 1025.3 0.0
26/09:00pm 2.4 -1.5 1.1 91 0.5 NE 11 13 6 7 1025.0 1025.5 0.0
26/08:30pm 3.2 1.0 1.3 87 0.8 ENE 2 6 1 3 1024.5 1025.0 0.0
26/08:00pm 2.8 0.6 0.9 87 0.7 ESE 2 7 1 4 1024.4 1024.9 0.0
26/07:30pm 2.6 -1.1 0.2 84 0.9 NE 9 11 5 6 1024.1 1024.6 0.0
26/07:00pm 3.7 0.4 0.4 79 1.3 NNE 7 11 4 6 1023.7 1024.3 0.0
26/06:30pm 6.4 2.7 2.3 75 1.7 NNE 11 11 6 6 1023.9 1024.4 0.0
26/06:00pm 9.7 8.1 2.6 61 3.1 CALM 0 0 0 0 1023.3 1023.8 0.0
26/05:30pm 10.3 8.3 2.4 58 3.5 W 2 6 1 3 1022.7 1023.2 0.0
26/05:00pm 12.1 8.4 2.3 51 4.3 WNW 11 11 6 6 1022.3 1022.8 0.0
26/04:30pm 14.0 10.0 2.9 47 5.1 WNW 13 15 7 8 1022.1 1022.6 0.0
26/04:00pm 15.1 11.1 2.6 43 5.7 WNW 13 17 7 9 1022.1 1022.6 0.0
26/03:30pm 15.5 11.8 2.3 41 6.0 W 11 17 6 9 1022.0 1022.5 0.0
26/03:00pm 15.6 11.8 1.7 39 6.3 W 11 15 6 8 1022.0 1022.5 0.0
26/02:30pm 16.0 13.0 2.1 39 6.4 WNW 7 15 4 8 1021.9 1022.3 0.0
26/02:00pm 15.7 12.4 2.2 40 6.2 W 9 15 5 8 1021.9 1022.3 0.0
26/01:30pm 15.7 11.9 1.8 39 6.3 WSW 11 17 6 9 1022.1 1022.6 0.0
26/01:00pm 14.9 10.6 0.7 38 6.2 SW 13 20 7 11 1022.4 1022.9 0.0
26/12:30pm 14.5 10.5 0.7 39 6.1 SW 11 19 6 10 1022.4 1022.9 0.0
26/12:00pm 14.1 10.3 2.0 44 5.4 W 11 17 6 9 1022.8 1023.3 0.0
26/11:30am 13.5 11.8 4.1 53 4.4 WSW 2 7 1 4 1023.2 1023.7 0.0
26/11:00am 12.5 10.1 5.2 61 3.5 NNE 7 11 4 6 1023.3 1023.8 0.0
26/10:30am 10.9 9.0 6.5 74 2.1 NW 6 9 3 5 1023.4 1023.9 0.0
26/10:00am 7.7 5.5 6.0 89 0.8 NNW 7 11 4 6 1023.9 1024.4 0.0
26/09:30am 5.1 3.2 4.7 97 0.2 NW 4 7 2 4 1023.6 1024.1 0.0
26/09:00am 2.6 1.0 2.3 98 0.1 CALM 0 0 0 0 1023.4 1023.9 0.0
26/08:30am 0.7 -1.2 0.4 98 0.1 CALM 0 0 0 0 1023.3 1023.8 0.0
26/08:20am 0.3 -1.7 0.0 98 0.1 CALM 0 0 0 0 1023.4 1023.9 0.0
26/08:04am -1.0 -3.2 -1.3 98 0.1 CALM 0 0 0 0 1023.2 1023.7 0.0
26/08:00am -1.2 -3.4 -1.5 98 0.0 CALM 0 0 0 0 1023.2 1023.7 0.0
26/07:50am -1.5 -3.7 -1.8 98 0.0 CALM 0 0 0 0 1022.8 1023.3 0.0
26/07:44am -1.4 -3.6 -1.7 98 0.0 CALM 0 0 0 0 1022.8 1023.3 0.0
26/07:41am -1.7 -4.0 -2.0 98 0.0 CALM 0 0 0 0 1022.7 1023.2 0.0
26/07:30am -2.2 -4.5 -2.5 98 0.0 CALM 0 0 0 0 1022.6 1023.1 0.0
26/07:23am -2.3 -4.6 -2.6 98 0.0 CALM 0 0 0 0 1022.4 1022.9 0.0
26/07:21am -2.2 -4.5 -2.5 98 0.0 CALM 0 0 0 0 1022.4 1022.9 0.0
26/07:08am -2.5 -4.9 -2.8 98 0.0 CALM 0 0 0 0 1022.2 1022.7 0.0
26/07:00am -2.6 -5.0 -2.9 98 0.0 CALM 0 0 0 0 1022.3 1022.8 0.0
26/06:49am -2.3 -4.6 -2.6 98 0.0 CALM 0 0 0 0 1022.2 1022.7 0.0
26/06:48am -2.2 -4.5 -2.5 98 0.0 CALM 0 0 0 0 1022.2 1022.7 0.0
26/06:45am -2.2 -4.5 -2.5 98 0.0 CALM 0 0 0 0 1022.1 1022.6 0.0
26/06:42am -1.5 -3.7 -1.8 98 0.0 CALM 0 0 0 0 1022.0 1022.5 0.0
26/06:30am -1.3 -3.5 -1.6 98 0.0 CALM 0 0 0 0 1021.9 1022.3 0.0
26/06:29am -1.3 -3.5 -1.6 98 0.0 CALM 0 0 0 0 1021.9 1022.3 0.0
26/06:08am -1.1 -3.3 -1.4 98 0.1 CALM 0 0 0 0 1021.4 1021.9 0.0
26/06:03am -1.1 -3.3 -1.4 98 0.1 CALM 0 0 0 0 1021.3 1021.8 0.0
26/06:00am -1.4 -3.6 -1.7 98 0.0 CALM 0 4 0 2 1021.2 1021.7 0.0
26/05:48am -1.5 -4.9 -1.8 98 0.0 NNE 6 7 3 4 1021.1 1021.6 0.0
26/05:30am -1.2 -4.5 -1.5 98 0.0 NNE 6 7 3 4 1020.9 1021.4 0.0
26/05:28am -1.2 -4.5 -1.5 98 0.0 NNE 6 7 3 4 1020.9 1021.4 0.0
26/05:07am -1.2 -3.4 -1.5 98 0.0 CALM 0 2 0 1 1020.8 1021.3 0.0
26/05:00am -0.5 -2.6 -0.8 98 0.1 CALM 0 0 0 0 1020.8 1021.3 0.0
26/04:47am 0.3 -2.8 0.0 98 0.1 SE 6 7 3 4 1020.7 1021.2 0.0
26/04:33am -0.1 -2.9 -0.4 98 0.1 S 4 7 2 4 1020.6 1021.1 0.0
26/04:30am -0.1 -2.9 -0.4 98 0.1 S 4 7 2 4 1020.7 1021.2 0.0
26/04:26am 0.1 -2.3 -0.2 98 0.1 S 2 7 1 4 1020.6 1021.1 0.0
26/04:20am 0.3 -1.7 0.0 98 0.1 CALM 0 0 0 0 1020.5 1021.0 0.0
26/04:02am 1.0 -1.3 0.7 98 0.1 E 2 6 1 3 1020.6 1021.1 0.0
26/04:00am 0.8 -1.1 0.5 98 0.1 CALM 0 6 0 3 1020.6 1021.1 0.0

Other Formats:

Comma delimited format used in spreadsheet applications
http://www.bom.gov.au/fwo/IDN60801/IDN60801.94727.axf

JavaScript Object Notation format (JSON) in row-major order
http://www.bom.gov.au/fwo/IDN60801/IDN60801.94727.json